Boles, Kentucky
Current Conditions -  °F | °C
As of 11:55 AM on Saturday 25 Oct 2014 (Local Time) from KGLW Reporting Station
Overcast Overcast  
Wind Chill: 64°   Ceiling: 3700
Heat Index: 64°   Visibility: 10mi
Dew Point: 53°   Wind: 7mph
Humidity: 68%   Direction: 210°SSW
Pressure: 30.06"   Gusts: NA
Location:  36.7279°N, 85.6843°W
Report Text: KGLW 251655Z AUTO 21006KT 10SM OVC037 18/12 A3006 RMK AO2 T01780119
Loading
Personal Weather Stations






























Interactive Weather Map
Tropical Storm Tracking
New forecast layout! Learn more

10-Day Weather Forecast

Advertisements
Track Severe Weather on mobile